sensor_id;sensor_type;location;lat;lon;timestamp;pressure;altitude;pressure_sealevel;temperature;humidity
4830;BME280;2429;52.586;14.322;2022-10-20T00:02:18;102737.00;;;1.62;82.29
4830;BME280;2429;52.586;14.322;2022-10-20T00:04:45;102731.81;;;1.62;82.72
4830;BME280;2429;52.586;14.322;2022-10-20T00:07:12;102727.53;;;1.65;81.83
4830;BME280;2429;52.586;14.322;2022-10-20T00:09:39;102732.72;;;1.72;82.43
4830;BME280;2429;52.586;14.322;2022-10-20T00:12:06;102737.91;;;1.62;82.50
4830;BME280;2429;52.586;14.322;2022-10-20T00:14:33;102719.69;;;1.61;83.17
4830;BME280;2429;52.586;14.322;2022-10-20T00:17:00;102730.97;;;1.66;82.69
4830;BME280;2429;52.586;14.322;2022-10-20T00:19:27;102729.22;;;1.62;83.90
4830;BME280;2429;52.586;14.322;2022-10-20T00:21:54;102724.03;;;1.62;82.75
4830;BME280;2429;52.586;14.322;2022-10-20T00:24:22;102729.28;;;1.79;81.61
4830;BME280;2429;52.586;14.322;2022-10-20T00:26:49;102732.72;;;1.62;81.66
4830;BME280;2429;52.586;14.322;2022-10-20T00:29:16;102729.22;;;1.59;81.62
4830;BME280;2429;52.586;14.322;2022-10-20T00:31:48;102734.41;;;1.54;82.00
4830;BME280;2429;52.586;14.322;2022-10-20T00:34:15;102733.53;;;1.55;81.93
4830;BME280;2429;52.586;14.322;2022-10-20T00:36:42;102734.34;;;1.39;81.40
4830;BME280;2429;52.586;14.322;2022-10-20T00:39:14;102734.28;;;1.28;81.00
4830;BME280;2429;52.586;14.322;2022-10-20T00:41:41;102737.72;;;1.19;81.76
4830;BME280;2429;52.586;14.322;2022-10-20T00:46:54;102732.47;;;1.13;80.33
4830;BME280;2429;52.586;14.322;2022-10-20T00:49:22;102731.56;;;1.06;81.34
4830;BME280;2429;52.586;14.322;2022-10-20T00:51:51;102728.97;;;1.02;81.09
4830;BME280;2429;52.586;14.322;2022-10-20T00:54:20;102727.22;;;1.04;81.37
4830;BME280;2429;52.586;14.322;2022-10-20T00:56:49;102728.06;;;0.99;81.93
4830;BME280;2429;52.586;14.322;2022-10-20T00:59:17;102726.34;;;1.00;80.84
4830;BME280;2429;52.586;14.322;2022-10-20T01:01:46;102720.25;;;0.93;81.25
4830;BME280;2429;52.586;14.322;2022-10-20T01:04:13;102717.66;;;0.93;81.95
4830;BME280;2429;52.586;14.322;2022-10-20T01:06:41;102718.56;;;1.00;81.43
4830;BME280;2429;52.586;14.322;2022-10-20T01:09:08;102712.50;;;0.96;81.88
4830;BME280;2429;52.586;14.322;2022-10-20T01:14:12;102703.84;;;0.93;82.72
4830;BME280;2429;52.586;14.322;2022-10-20T01:16:51;102703.84;;;0.93;82.96
4830;BME280;2429;52.586;14.322;2022-10-20T01:22:15;102703.03;;;1.00;83.46
4830;BME280;2429;52.586;14.322;2022-10-20T01:24:44;102690.06;;;1.03;83.13
4830;BME280;2429;52.586;14.322;2022-10-20T01:29:43;102685.69;;;0.93;83.45
4830;BME280;2429;52.586;14.322;2022-10-20T01:34:45;102693.53;;;1.05;82.85
4830;BME280;2429;52.586;14.322;2022-10-20T01:37:30;102693.56;;;1.13;81.33
4830;BME280;2429;52.586;14.322;2022-10-20T01:40:20;102685.78;;;1.13;81.67
4830;BME280;2429;52.586;14.322;2022-10-20T01:42:49;102690.91;;;0.99;82.49
4830;BME280;2429;52.586;14.322;2022-10-20T01:45:17;102687.44;;;0.95;83.13
4830;BME280;2429;52.586;14.322;2022-10-20T01:47:47;102684.88;;;1.00;82.58
4830;BME280;2429;52.586;14.322;2022-10-20T01:50:15;102690.88;;;0.97;82.23
4830;BME280;2429;52.586;14.322;2022-10-20T01:52:44;102691.72;;;0.90;82.82
4830;BME280;2429;52.586;14.322;2022-10-20T01:55:12;102683.09;;;0.91;82.38
4830;BME280;2429;52.586;14.322;2022-10-20T01:57:56;102687.41;;;0.92;83.02
4830;BME280;2429;52.586;14.322;2022-10-20T02:00:28;102689.91;;;0.80;83.09
4830;BME280;2429;52.586;14.322;2022-10-20T02:07:59;102680.34;;;0.70;82.39
4830;BME280;2429;52.586;14.322;2022-10-20T02:10:31;102684.69;;;0.71;82.77
4830;BME280;2429;52.586;14.322;2022-10-20T02:13:03;102681.28;;;0.76;83.24
4830;BME280;2429;52.586;14.322;2022-10-20T02:15:32;102683.03;;;0.82;82.43
4830;BME280;2429;52.586;14.322;2022-10-20T02:18:03;102672.56;;;0.71;82.27
4830;BME280;2429;52.586;14.322;2022-10-20T02:20:32;102672.56;;;0.67;81.30
4830;BME280;2429;52.586;14.322;2022-10-20T02:22:59;102668.03;;;0.38;82.01
4830;BME280;2429;52.586;14.322;2022-10-20T02:25:28;102664.63;;;0.40;81.82
4830;BME280;2429;52.586;14.322;2022-10-20T02:27:56;102659.38;;;0.31;81.47
4830;BME280;2429;52.586;14.322;2022-10-20T02:30:29;102662.88;;;0.41;81.66
4830;BME280;2429;52.586;14.322;2022-10-20T02:32:56;102647.28;;;0.33;82.73
4830;BME280;2429;52.586;14.322;2022-10-20T02:35:30;102652.47;;;0.32;82.83
4830;BME280;2429;52.586;14.322;2022-10-20T02:37:58;102647.22;;;0.25;82.66
4830;BME280;2429;52.586;14.322;2022-10-20T02:40:25;102648.06;;;0.23;83.63
4830;BME280;2429;52.586;14.322;2022-10-20T02:42:52;102641.16;;;0.22;84.31
4830;BME280;2429;52.586;14.322;2022-10-20T02:45:20;102634.28;;;0.25;84.29
4830;BME280;2429;52.586;14.322;2022-10-20T02:47:46;102634.25;;;0.19;84.77
4830;BME280;2429;52.586;14.322;2022-10-20T02:50:14;102629.97;;;0.27;84.16
4830;BME280;2429;52.586;14.322;2022-10-20T02:52:42;102629.94;;;0.24;84.06
4830;BME280;2429;52.586;14.322;2022-10-20T02:55:09;102624.75;;;0.21;84.70
4830;BME280;2429;52.586;14.322;2022-10-20T02:57:36;102614.38;;;0.18;85.92
4830;BME280;2429;52.586;14.322;2022-10-20T03:00:05;102620.50;;;0.28;86.50
4830;BME280;2429;52.586;14.322;2022-10-20T03:02:32;102624.88;;;0.40;86.44
4830;BME280;2429;52.586;14.322;2022-10-20T03:04:59;102624.91;;;0.43;86.39
4830;BME280;2429;52.586;14.322;2022-10-20T03:07:26;102624.06;;;0.50;85.87
4830;BME280;2429;52.586;14.322;2022-10-20T03:09:53;102621.44;;;0.42;86.38
4830;BME280;2429;52.586;14.322;2022-10-20T03:12:20;102622.34;;;0.48;86.11
4830;BME280;2429;52.586;14.322;2022-10-20T03:14:47;102611.13;;;0.53;86.41
4830;BME280;2429;52.586;14.322;2022-10-20T03:17:14;102617.22;;;0.57;85.94
4830;BME280;2429;52.586;14.322;2022-10-20T03:19:42;102615.50;;;0.62;86.57
4830;BME280;2429;52.586;14.322;2022-10-20T03:22:08;102613.78;;;0.62;86.78
4830;BME280;2429;52.586;14.322;2022-10-20T03:24:36;102615.50;;;0.62;86.75
4830;BME280;2429;52.586;14.322;2022-10-20T03:27:03;102606.94;;;0.74;87.54
4830;BME280;2429;52.586;14.322;2022-10-20T03:29:30;102603.50;;;0.81;87.54
4830;BME280;2429;52.586;14.322;2022-10-20T03:31:57;102603.53;;;0.89;86.38
4830;BME280;2429;52.586;14.322;2022-10-20T03:34:24;102595.75;;;0.90;86.67
4830;BME280;2429;52.586;14.322;2022-10-20T03:36:51;102600.97;;;0.98;86.66
4830;BME280;2429;52.586;14.322;2022-10-20T03:39:18;102592.31;;;0.91;86.71
4830;BME280;2429;52.586;14.322;2022-10-20T03:41:45;102594.09;;;1.02;86.76
4830;BME280;2429;52.586;14.322;2022-10-20T03:44:12;102591.50;;;1.00;87.49
4830;BME280;2429;52.586;14.322;2022-10-20T03:46:39;102585.47;;;1.06;87.20
4830;BME280;2429;52.586;14.322;2022-10-20T03:49:06;102599.28;;;1.08;87.11
4830;BME280;2429;52.586;14.322;2022-10-20T03:51:33;102594.09;;;1.05;87.17
4830;BME280;2429;52.586;14.322;2022-10-20T03:54:00;102586.31;;;1.08;86.35
4830;BME280;2429;52.586;14.322;2022-10-20T03:56:27;102592.34;;;1.04;86.31
4830;BME280;2429;52.586;14.322;2022-10-20T03:58:54;102584.59;;;1.14;85.47
4830;BME280;2429;52.586;14.322;2022-10-20T04:01:22;102581.13;;;1.03;85.54
4830;BME280;2429;52.586;14.322;2022-10-20T04:03:51;102571.59;;;0.97;85.89
4830;BME280;2429;52.586;14.322;2022-10-20T04:06:18;102580.19;;;0.81;86.80
4830;BME280;2429;52.586;14.322;2022-10-20T04:08:45;102574.16;;;0.90;86.37
4830;BME280;2429;52.586;14.322;2022-10-20T04:11:12;102574.16;;;0.91;86.16
4830;BME280;2429;52.586;14.322;2022-10-20T04:13:40;102573.22;;;0.74;87.19
4830;BME280;2429;52.586;14.322;2022-10-20T04:16:07;102582.72;;;0.69;87.74
4830;BME280;2429;52.586;14.322;2022-10-20T04:18:34;102581.03;;;0.78;87.22
4830;BME280;2429;52.586;14.322;2022-10-20T04:21:01;102581.00;;;0.72;87.23
4830;BME280;2429;52.586;14.322;2022-10-20T04:23:28;102571.47;;;0.70;87.44
4830;BME280;2429;52.586;14.322;2022-10-20T04:25:55;102570.66;;;0.80;86.80
4830;BME280;2429;52.586;14.322;2022-10-20T04:28:22;102568.97;;;0.84;86.89
4830;BME280;2429;52.586;14.322;2022-10-20T04:30:49;102568.03;;;0.74;87.12
4830;BME280;2429;52.586;14.322;2022-10-20T04:33:16;102569.78;;;0.76;86.88
4830;BME280;2429;52.586;14.322;2022-10-20T04:35:43;102567.97;;;0.55;87.53
4830;BME280;2429;52.586;14.322;2022-10-20T04:38:10;102569.78;;;0.78;86.65
4830;BME280;2429;52.586;14.322;2022-10-20T04:40:37;102566.34;;;0.74;86.48
4830;BME280;2429;52.586;14.322;2022-10-20T04:43:04;102562.88;;;0.77;85.84
4830;BME280;2429;52.586;14.322;2022-10-20T04:45:31;102562.00;;;0.75;86.22
4830;BME280;2429;52.586;14.322;2022-10-20T04:47:58;102568.06;;;0.78;85.94
4830;BME280;2429;52.586;14.322;2022-10-20T04:50:25;102565.44;;;0.72;86.24
4830;BME280;2429;52.586;14.322;2022-10-20T04:52:52;102568.03;;;0.74;86.14
4830;BME280;2429;52.586;14.322;2022-10-20T04:55:19;102562.84;;;0.71;85.65
4830;BME280;2429;52.586;14.322;2022-10-20T04:57:47;102560.25;;;0.71;86.51
4830;BME280;2429;52.586;14.322;2022-10-20T05:00:14;102558.56;;;0.76;86.28
4830;BME280;2429;52.586;14.322;2022-10-20T05:02:41;102553.31;;;0.67;86.37
4830;BME280;2429;52.586;14.322;2022-10-20T05:05:08;102548.16;;;0.71;85.92
4830;BME280;2429;52.586;14.322;2022-10-20T05:07:35;102546.47;;;0.79;86.31
4830;BME280;2429;52.586;14.322;2022-10-20T05:10:03;102541.28;;;0.81;85.28
4830;BME280;2429;52.586;14.322;2022-10-20T05:12:30;102538.66;;;0.72;85.95
4830;BME280;2429;52.586;14.322;2022-10-20T05:14:57;102535.25;;;0.77;85.48
4830;BME280;2429;52.586;14.322;2022-10-20T05:17:24;102529.16;;;0.74;85.83
4830;BME280;2429;52.586;14.322;2022-10-20T05:19:51;102535.16;;;0.62;86.05
4830;BME280;2429;52.586;14.322;2022-10-20T05:22:18;102524.78;;;0.62;85.41
4830;BME280;2429;52.586;14.322;2022-10-20T05:24:45;102526.50;;;0.52;85.83
4830;BME280;2429;52.586;14.322;2022-10-20T05:27:12;102524.78;;;0.65;86.34
4830;BME280;2429;52.586;14.322;2022-10-20T05:29:39;102523.94;;;0.65;85.62
4830;BME280;2429;52.586;14.322;2022-10-20T05:32:06;102537.72;;;0.57;85.23
4830;BME280;2429;52.586;14.322;2022-10-20T05:34:33;102546.34;;;0.53;84.77
4830;BME280;2429;52.586;14.322;2022-10-20T05:37:00;102540.31;;;0.56;85.08
4830;BME280;2429;52.586;14.322;2022-10-20T05:39:27;102531.56;;;0.38;85.57
4830;BME280;2429;52.586;14.322;2022-10-20T05:41:54;102537.69;;;0.47;85.38
4830;BME280;2429;52.586;14.322;2022-10-20T05:44:21;102543.72;;;0.50;84.66
4830;BME280;2429;52.586;14.322;2022-10-20T05:46:48;102536.88;;;0.57;84.92
4830;BME280;2429;52.586;14.322;2022-10-20T05:49:15;102524.69;;;0.40;85.46
4830;BME280;2429;52.586;14.322;2022-10-20T05:51:43;102529.09;;;0.57;86.27
4830;BME280;2429;52.586;14.322;2022-10-20T05:54:11;102529.09;;;0.52;85.19
4830;BME280;2429;52.586;14.322;2022-10-20T05:56:39;102529.13;;;0.61;84.68
4830;BME280;2429;52.586;14.322;2022-10-20T05:59:07;102540.31;;;0.54;83.86
4830;BME280;2429;52.586;14.322;2022-10-20T06:01:34;102538.53;;;0.47;84.65
4830;BME280;2429;52.586;14.322;2022-10-20T06:04:15;102533.34;;;0.47;84.67
4830;BME280;2429;52.586;14.322;2022-10-20T06:06:42;102536.81;;;0.41;85.52
4830;BME280;2429;52.586;14.322;2022-10-20T06:09:10;102535.94;;;0.45;85.60
4830;BME280;2429;52.586;14.322;2022-10-20T06:11:37;102532.50;;;0.50;85.69
4830;BME280;2429;52.586;14.322;2022-10-20T06:14:06;102529.94;;;0.53;85.50
4830;BME280;2429;52.586;14.322;2022-10-20T06:16:33;102542.00;;;0.46;85.78
4830;BME280;2429;52.586;14.322;2022-10-20T06:19:00;102544.59;;;0.48;85.76
4830;BME280;2429;52.586;14.322;2022-10-20T06:21:28;102547.25;;;0.63;85.50
4830;BME280;2429;52.586;14.322;2022-10-20T06:23:58;102552.41;;;0.51;85.33
4830;BME280;2429;52.586;14.322;2022-10-20T06:26:27;102552.44;;;0.63;85.08
4830;BME280;2429;52.586;14.322;2022-10-20T06:29:02;102552.38;;;0.46;85.44
4830;BME280;2429;52.586;14.322;2022-10-20T06:31:32;102557.63;;;0.58;85.42
4830;BME280;2429;52.586;14.322;2022-10-20T06:33:59;102560.97;;;0.39;85.79
4830;BME280;2429;52.586;14.322;2022-10-20T06:36:26;102557.56;;;0.46;86.58
4830;BME280;2429;52.586;14.322;2022-10-20T06:38:54;102558.47;;;0.62;86.16
4830;BME280;2429;52.586;14.322;2022-10-20T06:41:22;102553.28;;;0.62;85.71
4830;BME280;2429;52.586;14.322;2022-10-20T06:43:49;102555.91;;;0.65;85.51
4830;BME280;2429;52.586;14.322;2022-10-20T06:46:24;102558.47;;;0.60;85.82
4830;BME280;2429;52.586;14.322;2022-10-20T06:48:52;102561.81;;;0.35;85.84
4830;BME280;2429;52.586;14.322;2022-10-20T06:51:24;102561.78;;;0.33;87.50
4830;BME280;2429;52.586;14.322;2022-10-20T06:53:51;102561.78;;;0.32;88.32
4830;BME280;2429;52.586;14.322;2022-10-20T06:56:20;102554.13;;;0.53;88.81
4830;BME280;2429;52.586;14.322;2022-10-20T06:58:47;102558.59;;;0.82;88.15
4830;BME280;2429;52.586;14.322;2022-10-20T07:01:22;102562.97;;;0.95;87.71
4830;BME280;2429;52.586;14.322;2022-10-20T07:03:50;102558.63;;;0.93;87.13
4830;BME280;2429;52.586;14.322;2022-10-20T07:06:20;102560.41;;;1.15;86.29
4830;BME280;2429;52.586;14.322;2022-10-20T07:08:47;102559.56;;;1.15;86.57
4830;BME280;2429;52.586;14.322;2022-10-20T07:11:17;102553.53;;;1.34;85.76
4830;BME280;2429;52.586;14.322;2022-10-20T07:13:44;102544.91;;;1.42;85.31
4830;BME280;2429;52.586;14.322;2022-10-20T07:16:13;102545.75;;;1.38;85.92
4830;BME280;2429;52.586;14.322;2022-10-20T07:18:40;102538.84;;;1.55;86.03
4830;BME280;2429;52.586;14.322;2022-10-20T07:21:12;102547.50;;;1.71;85.66
4830;BME280;2429;52.586;14.322;2022-10-20T07:23:39;102557.91;;;1.79;85.45
4830;BME280;2429;52.586;14.322;2022-10-20T07:28:34;102556.16;;;1.89;83.56
4830;BME280;2429;52.586;14.322;2022-10-20T07:31:05;102554.41;;;1.89;84.49
4830;BME280;2429;52.586;14.322;2022-10-20T07:33:33;102554.41;;;1.75;84.22
4830;BME280;2429;52.586;14.322;2022-10-20T07:36:00;102550.97;;;1.65;84.92
4830;BME280;2429;52.586;14.322;2022-10-20T07:38:27;102551.84;;;1.66;85.23
4830;BME280;2429;52.586;14.322;2022-10-20T07:41:02;102543.16;;;1.59;86.05
4830;BME280;2429;52.586;14.322;2022-10-20T07:43:29;102544.91;;;1.65;87.26
4830;BME280;2429;52.586;14.322;2022-10-20T07:45:56;102546.63;;;1.77;87.72
4830;BME280;2429;52.586;14.322;2022-10-20T07:48:23;102546.63;;;1.84;87.90
4830;BME280;2429;52.586;14.322;2022-10-20T07:50:50;102550.94;;;1.99;87.64
4830;BME280;2429;52.586;14.322;2022-10-20T07:53:17;102545.75;;;2.10;87.47
4830;BME280;2429;52.586;14.322;2022-10-20T07:55:44;102547.44;;;2.17;87.71
4830;BME280;2429;52.586;14.322;2022-10-20T07:58:11;102549.19;;;2.14;88.00
4830;BME280;2429;52.586;14.322;2022-10-20T08:00:38;102547.44;;;2.16;88.85
4830;BME280;2429;52.586;14.322;2022-10-20T08:03:10;102547.44;;;2.17;89.40
4830;BME280;2429;52.586;14.322;2022-10-20T08:05:37;102540.53;;;2.18;89.38
4830;BME280;2429;52.586;14.322;2022-10-20T08:08:04;102530.97;;;2.40;89.37
4830;BME280;2429;52.586;14.322;2022-10-20T08:10:31;102531.69;;;2.67;88.97
4830;BME280;2429;52.586;14.322;2022-10-20T08:12:58;102527.28;;;2.83;89.32
4830;BME280;2429;52.586;14.322;2022-10-20T08:15:25;102526.00;;;3.55;86.72
4830;BME280;2429;52.586;14.322;2022-10-20T08:17:52;102514.09;;;4.22;83.19
4830;BME280;2429;52.586;14.322;2022-10-20T08:20:20;102514.59;;;4.54;80.29
4830;BME280;2429;52.586;14.322;2022-10-20T08:22:52;102514.94;;;4.94;79.47
4830;BME280;2429;52.586;14.322;2022-10-20T08:25:19;102507.06;;;5.52;76.65
4830;BME280;2429;52.586;14.322;2022-10-20T08:27:46;102505.22;;;5.62;75.56
4830;BME280;2429;52.586;14.322;2022-10-20T08:30:13;102504.91;;;5.79;74.07
4830;BME280;2429;52.586;14.322;2022-10-20T08:32:55;102502.38;;;5.74;74.48
4830;BME280;2429;52.586;14.322;2022-10-20T08:35:22;102488.69;;;6.52;71.66
4830;BME280;2429;52.586;14.322;2022-10-20T08:37:49;102490.72;;;6.79;70.17
4830;BME280;2429;52.586;14.322;2022-10-20T08:40:22;102484.59;;;6.80;69.88
4830;BME280;2429;52.586;14.322;2022-10-20T08:42:50;102484.94;;;7.40;68.50
4830;BME280;2429;52.586;14.322;2022-10-20T08:45:26;102476.06;;;7.82;67.66
4830;BME280;2429;52.586;14.322;2022-10-20T08:47:55;102475.63;;;8.29;65.92
4830;BME280;2429;52.586;14.322;2022-10-20T08:50:23;102465.59;;;8.43;64.83
4830;BME280;2429;52.586;14.322;2022-10-20T08:52:54;102474.97;;;8.20;64.90
4830;BME280;2429;52.586;14.322;2022-10-20T08:55:26;102461.47;;;8.34;65.54
4830;BME280;2429;52.586;14.322;2022-10-20T08:57:59;102463.91;;;8.70;64.03
4830;BME280;2429;52.586;14.322;2022-10-20T09:00:27;102457.91;;;8.65;64.01
4830;BME280;2429;52.586;14.322;2022-10-20T09:03:00;102453.81;;;9.15;62.86
4830;BME280;2429;52.586;14.322;2022-10-20T09:05:30;102452.28;;;9.34;61.90
4830;BME280;2429;52.586;14.322;2022-10-20T09:07:57;102452.38;;;9.82;61.02
4830;BME280;2429;52.586;14.322;2022-10-20T09:12:58;102454.59;;;9.43;62.38
4830;BME280;2429;52.586;14.322;2022-10-20T09:15:26;102452.84;;;9.42;62.02
4830;BME280;2429;52.586;14.322;2022-10-20T09:17:54;102448.78;;;9.07;62.85
4830;BME280;2429;52.586;14.322;2022-10-20T09:20:26;102452.78;;;9.71;62.31
4830;BME280;2429;52.586;14.322;2022-10-20T09:22:55;102441.84;;;9.56;62.40
4830;BME280;2429;52.586;14.322;2022-10-20T09:25:23;102437.50;;;10.53;61.30
4830;BME280;2429;52.586;14.322;2022-10-20T09:27:51;102433.19;;;11.17;59.10
4830;BME280;2429;52.586;14.322;2022-10-20T09:30:37;102426.69;;;12.06;57.01
4830;BME280;2429;52.586;14.322;2022-10-20T09:35:49;102426.69;;;11.46;57.29
4830;BME280;2429;52.586;14.322;2022-10-20T09:38:18;102412.72;;;12.04;55.47
4830;BME280;2429;52.586;14.322;2022-10-20T09:43:21;102413.28;;;12.11;54.97
4830;BME280;2429;52.586;14.322;2022-10-20T09:45:49;102412.41;;;12.49;55.02
4830;BME280;2429;52.586;14.322;2022-10-20T09:48:21;102418.94;;;12.03;55.88
4830;BME280;2429;52.586;14.322;2022-10-20T09:50:51;102425.38;;;11.56;56.50
4830;BME280;2429;52.586;14.322;2022-10-20T09:53:22;102433.69;;;11.27;58.24
4830;BME280;2429;52.586;14.322;2022-10-20T09:55:52;102424.00;;;11.05;58.81
4830;BME280;2429;52.586;14.322;2022-10-20T10:00:53;102415.38;;;9.86;63.36
4830;BME280;2429;52.586;14.322;2022-10-20T10:03:21;102402.41;;;9.56;65.96
4830;BME280;2429;52.586;14.322;2022-10-20T10:08:20;102402.91;;;9.42;67.49
4830;BME280;2429;52.586;14.322;2022-10-20T10:11:03;102394.41;;;9.36;66.81
4830;BME280;2429;52.586;14.322;2022-10-20T10:13:31;102387.84;;;9.22;66.71
4830;BME280;2429;52.586;14.322;2022-10-20T10:16:03;102381.56;;;9.00;68.73
4830;BME280;2429;52.586;14.322;2022-10-20T10:18:30;102382.28;;;9.05;68.21
4830;BME280;2429;52.586;14.322;2022-10-20T10:21:08;102374.66;;;8.97;67.62
4830;BME280;2429;52.586;14.322;2022-10-20T10:23:36;102366.13;;;8.62;68.06
4830;BME280;2429;52.586;14.322;2022-10-20T10:26:39;102365.09;;;8.39;68.85
4830;BME280;2429;52.586;14.322;2022-10-20T10:29:27;102360.13;;;8.59;68.64
4830;BME280;2429;52.586;14.322;2022-10-20T10:31:57;102362.13;;;8.50;67.80
4830;BME280;2429;52.586;14.322;2022-10-20T10:34:38;102348.47;;;8.67;68.96
4830;BME280;2429;52.586;14.322;2022-10-20T10:37:11;102343.13;;;8.97;68.39
4830;BME280;2429;52.586;14.322;2022-10-20T10:39:40;102336.75;;;9.06;67.52
4830;BME280;2429;52.586;14.322;2022-10-20T10:44:38;102327.69;;;9.15;68.06
4830;BME280;2429;52.586;14.322;2022-10-20T10:52:34;102316.31;;;9.14;67.41
4830;BME280;2429;52.586;14.322;2022-10-20T10:55:14;102310.78;;;8.95;66.33
4830;BME280;2429;52.586;14.322;2022-10-20T11:06:22;102280.53;;;8.85;65.31
4830;BME280;2429;52.586;14.322;2022-10-20T11:27:12;102247.94;;;9.16;64.28
4830;BME280;2429;52.586;14.322;2022-10-20T11:29:50;102253.63;;;9.29;64.08
4830;BME280;2429;52.586;14.322;2022-10-20T11:32:24;102256.53;;;9.21;62.88
4830;BME280;2429;52.586;14.322;2022-10-20T11:35:04;102239.59;;;9.28;62.86
4830;BME280;2429;52.586;14.322;2022-10-20T11:37:37;102235.47;;;9.46;61.98
4830;BME280;2429;52.586;14.322;2022-10-20T11:47:52;102203.84;;;9.24;67.72
4830;BME280;2429;52.586;14.322;2022-10-20T11:50:23;102195.97;;;9.48;65.81
4830;BME280;2429;52.586;14.322;2022-10-20T11:52:58;102193.72;;;9.37;67.06
4830;BME280;2429;52.586;14.322;2022-10-20T11:57:58;102195.50;;;9.36;66.47
4830;BME280;2429;52.586;14.322;2022-10-20T12:10:59;102186.84;;;9.34;64.25
4830;BME280;2429;52.586;14.322;2022-10-20T12:15:56;102166.13;;;9.25;62.56
4830;BME280;2429;52.586;14.322;2022-10-20T12:20:51;102148.03;;;9.41;62.69
4830;BME280;2429;52.586;14.322;2022-10-20T12:26:23;102145.41;;;9.63;61.93
4830;BME280;2429;52.586;14.322;2022-10-20T12:28:52;102146.06;;;9.68;60.73
4830;BME280;2429;52.586;14.322;2022-10-20T12:31:19;102146.38;;;9.83;61.27
4830;BME280;2429;52.586;14.322;2022-10-20T12:38:45;102138.19;;;9.46;58.91
4830;BME280;2429;52.586;14.322;2022-10-20T12:42:17;102145.91;;;9.51;57.76
4830;BME280;2429;52.586;14.322;2022-10-20T12:44:16;102155.59;;;9.49;56.97
4830;BME280;2429;52.586;14.322;2022-10-20T12:46:58;102154.47;;;9.32;58.83
4830;BME280;2429;52.586;14.322;2022-10-20T12:52:19;102143.94;;;9.56;56.85
4830;BME280;2429;52.586;14.322;2022-10-20T12:54:51;102142.72;;;9.65;57.10
4830;BME280;2429;52.586;14.322;2022-10-20T12:57:27;102140.69;;;9.71;57.89
4830;BME280;2429;52.586;14.322;2022-10-20T12:59:57;102137.94;;;9.74;58.20
4830;BME280;2429;52.586;14.322;2022-10-20T13:12:52;102115.94;;;9.33;58.88
4830;BME280;2429;52.586;14.322;2022-10-20T13:15:20;102114.63;;;9.21;59.08
4830;BME280;2429;52.586;14.322;2022-10-20T13:17:52;102127.72;;;9.22;59.03
4830;BME280;2429;52.586;14.322;2022-10-20T13:23:29;102126.81;;;9.45;58.99
4830;BME280;2429;52.586;14.322;2022-10-20T13:25:54;102121.00;;;9.59;58.95
4830;BME280;2429;52.586;14.322;2022-10-20T13:28:31;102125.06;;;9.46;58.33
4830;BME280;2429;52.586;14.322;2022-10-20T13:47:01;102076.47;;;9.34;59.20
4830;BME280;2429;52.586;14.322;2022-10-20T13:49:52;102075.81;;;9.27;59.29
4830;BME280;2429;52.586;14.322;2022-10-20T13:52:25;102063.66;;;9.25;60.76
4830;BME280;2429;52.586;14.322;2022-10-20T13:54:54;102069.22;;;9.39;61.04
4830;BME280;2429;52.586;14.322;2022-10-20T13:57:26;102073.06;;;9.31;60.31
4830;BME280;2429;52.586;14.322;2022-10-20T13:59:54;102064.22;;;9.33;61.27
4830;BME280;2429;52.586;14.322;2022-10-20T14:02:23;102059.22;;;9.27;61.15
4830;BME280;2429;52.586;14.322;2022-10-20T14:05:11;102060.00;;;9.29;60.80
4830;BME280;2429;52.586;14.322;2022-10-20T14:07:39;102045.56;;;9.17;61.33
4830;BME280;2429;52.586;14.322;2022-10-20T14:10:30;102046.31;;;9.21;62.13
4830;BME280;2429;52.586;14.322;2022-10-20T14:12:54;102046.81;;;9.31;62.40
4830;BME280;2429;52.586;14.322;2022-10-20T14:15:26;102048.00;;;9.22;61.05
4830;BME280;2429;52.586;14.322;2022-10-20T14:17:55;102043.31;;;9.08;59.91
4830;BME280;2429;52.586;14.322;2022-10-20T14:20:23;102042.16;;;9.15;60.61
4830;BME280;2429;52.586;14.322;2022-10-20T14:22:50;102039.78;;;9.09;61.02
4830;BME280;2429;52.586;14.322;2022-10-20T14:25:20;102040.97;;;9.00;61.41
4830;BME280;2429;52.586;14.322;2022-10-20T14:27:47;102034.78;;;9.03;62.39
4830;BME280;2429;52.586;14.322;2022-10-20T14:30:17;102032.19;;;9.01;62.41
4830;BME280;2429;52.586;14.322;2022-10-20T14:32:44;102031.91;;;8.85;62.48
4830;BME280;2429;52.586;14.322;2022-10-20T14:35:17;102031.66;;;8.91;62.13
4830;BME280;2429;52.586;14.322;2022-10-20T14:37:54;102033.28;;;8.72;63.17
4830;BME280;2429;52.586;14.322;2022-10-20T14:40:46;102029.34;;;8.84;62.99
4830;BME280;2429;52.586;14.322;2022-10-20T14:45:40;102028.38;;;8.86;61.71
4830;BME280;2429;52.586;14.322;2022-10-20T14:48:18;102027.91;;;8.75;62.13
4830;BME280;2429;52.586;14.322;2022-10-20T14:50:46;102034.94;;;8.74;61.12
4830;BME280;2429;52.586;14.322;2022-10-20T14:55:53;102031.63;;;8.69;62.01
4830;BME280;2429;52.586;14.322;2022-10-20T14:59:11;102033.72;;;8.83;61.02
4830;BME280;2429;52.586;14.322;2022-10-20T15:01:15;102027.44;;;8.64;62.21
4830;BME280;2429;52.586;14.322;2022-10-20T15:03:43;102029.81;;;8.71;62.29
4830;BME280;2429;52.586;14.322;2022-10-20T15:06:11;102016.09;;;8.63;62.30
4830;BME280;2429;52.586;14.322;2022-10-20T15:08:52;102018.25;;;8.52;63.10
4830;BME280;2429;52.586;14.322;2022-10-20T15:11:21;102017.28;;;8.54;63.68
4830;BME280;2429;52.586;14.322;2022-10-20T15:13:50;102013.22;;;8.46;63.64
4830;BME280;2429;52.586;14.322;2022-10-20T15:16:31;102002.97;;;8.39;64.24
4830;BME280;2429;52.586;14.322;2022-10-20T15:21:37;102003.44;;;8.27;64.98
4830;BME280;2429;52.586;14.322;2022-10-20T15:24:04;102004.50;;;8.21;65.54
4830;BME280;2429;52.586;14.322;2022-10-20T15:26:32;101996.91;;;8.14;65.86
4830;BME280;2429;52.586;14.322;2022-10-20T15:28:59;101999.00;;;8.04;65.47
4830;BME280;2429;52.586;14.322;2022-10-20T15:31:27;101997.25;;;8.04;65.92
4830;BME280;2429;52.586;14.322;2022-10-20T15:33:55;102005.91;;;8.07;65.66
4830;BME280;2429;52.586;14.322;2022-10-20T15:36:24;101995.03;;;7.92;65.96
4830;BME280;2429;52.586;14.322;2022-10-20T15:38:54;102000.59;;;8.08;65.99
4830;BME280;2429;52.586;14.322;2022-10-20T15:41:23;101996.19;;;7.85;66.74
4830;BME280;2429;52.586;14.322;2022-10-20T15:43:51;101989.22;;;7.84;66.48
4830;BME280;2429;52.586;14.322;2022-10-20T15:46:18;101992.72;;;7.83;67.05